createdAt,value
2017-10-31T00:00:58.398Z,0
2017-10-31T00:02:08.791Z,0
2017-10-31T00:03:19.221Z,0
2017-10-31T00:04:29.637Z,0
2017-10-31T00:05:40.062Z,0
2017-10-31T00:06:50.452Z,0
2017-10-31T00:08:01.846Z,0
2017-10-31T00:09:11.927Z,0
2017-10-31T00:10:22.358Z,0
2017-10-31T00:11:32.676Z,0
2017-10-31T00:12:43.083Z,0
2017-10-31T00:13:53.483Z,0
2017-10-31T00:15:03.224Z,0
2017-10-31T00:16:13.625Z,0
2017-10-31T00:17:23.370Z,0
2017-10-31T00:18:33.431Z,0
2017-10-31T00:19:43.820Z,0
2017-10-31T00:20:54.222Z,0
2017-10-31T00:22:04.295Z,0
2017-10-31T00:23:14.359Z,0
2017-10-31T00:24:24.409Z,0
2017-10-31T00:25:34.817Z,0
2017-10-31T00:26:44.873Z,0
2017-10-31T00:27:55.278Z,0
2017-10-31T00:29:05.670Z,0
2017-10-31T00:30:16.071Z,0
2017-10-31T00:31:26.127Z,0
2017-10-31T00:32:36.204Z,0
2017-10-31T00:33:46.304Z,0
2017-10-31T00:34:56.717Z,0
2017-10-31T00:36:07.104Z,0
2017-10-31T00:37:17.486Z,0
2017-10-31T00:38:27.885Z,0
2017-10-31T00:39:38.279Z,0
2017-10-31T00:40:48.333Z,0
2017-10-31T00:41:57.748Z,0
2017-10-31T00:43:08.140Z,0
2017-10-31T00:44:18.539Z,0
2017-10-31T00:45:28.602Z,0
2017-10-31T00:46:38.673Z,0
2017-10-31T00:47:48.738Z,0
2017-10-31T00:48:59.146Z,0
2017-10-31T00:50:09.541Z,0
2017-10-31T00:51:19.651Z,0
2017-10-31T00:52:30.068Z,0
2017-10-31T00:53:40.490Z,0
2017-10-31T00:54:50.896Z,0
2017-10-31T00:56:00.957Z,0
2017-10-31T00:57:11.049Z,0
2017-10-31T00:58:21.142Z,0
2017-10-31T00:59:31.225Z,0
2017-10-31T01:00:41.619Z,0
2017-10-31T01:01:52.008Z,0
2017-10-31T01:03:02.389Z,0
2017-10-31T01:04:12.132Z,0
2017-10-31T01:05:22.177Z,0
2017-10-31T01:06:32.560Z,0
2017-10-31T01:07:42.949Z,0
2017-10-31T01:08:53.352Z,0
2017-10-31T01:10:03.436Z,0
2017-10-31T01:11:13.853Z,0
2017-10-31T01:12:24.246Z,0
2017-10-31T01:13:34.649Z,0
2017-10-31T01:14:45.056Z,0
2017-10-31T01:15:54.793Z,0
2017-10-31T01:17:04.855Z,0
2017-10-31T01:18:15.241Z,0
2017-10-31T01:19:25.631Z,0
2017-10-31T01:20:36.068Z,0
2017-10-31T01:21:46.490Z,0
2017-10-31T01:22:56.899Z,0
2017-10-31T01:24:07.289Z,0
2017-10-31T01:25:17.675Z,0
2017-10-31T01:26:28.071Z,0
2017-10-31T01:27:38.464Z,0
2017-10-31T01:28:48.857Z,0
2017-10-31T01:29:58.920Z,0
2017-10-31T01:31:09.327Z,0
2017-10-31T01:32:19.774Z,0
2017-10-31T01:33:30.177Z,0
2017-10-31T01:34:40.573Z,0
2017-10-31T01:35:51.008Z,0
2017-10-31T01:37:01.086Z,0
2017-10-31T01:38:11.550Z,0
2017-10-31T01:39:21.629Z,0
2017-10-31T01:40:31.357Z,0
2017-10-31T01:41:41.748Z,0
2017-10-31T01:42:52.176Z,0
2017-10-31T01:44:02.640Z,0
2017-10-31T01:45:12.699Z,0
2017-10-31T01:46:23.105Z,0
2017-10-31T01:47:33.510Z,0
2017-10-31T01:48:43.259Z,0
2017-10-31T01:49:53.695Z,0
2017-10-31T01:51:04.096Z,0
2017-10-31T01:52:14.502Z,0
2017-10-31T01:53:24.902Z,0
2017-10-31T01:54:35.307Z,0
2017-10-31T01:55:45.734Z,0
2017-10-31T01:56:56.138Z,0
2017-10-31T01:58:06.212Z,0
2017-10-31T01:59:16.296Z,0
2017-10-31T02:00:26.695Z,0
2017-10-31T02:01:36.783Z,0
2017-10-31T02:02:47.179Z,0
2017-10-31T02:03:56.926Z,0
2017-10-31T02:05:07.314Z,0
2017-10-31T02:06:17.408Z,0
2017-10-31T02:07:27.797Z,0
2017-10-31T02:08:38.198Z,0
2017-10-31T02:09:48.269Z,0
2017-10-31T02:10:58.660Z,0
2017-10-31T02:12:09.057Z,0
2017-10-31T02:13:19.458Z,0
2017-10-31T02:14:29.859Z,0
2017-10-31T02:15:40.250Z,0
2017-10-31T02:16:50.651Z,0
2017-10-31T02:18:01.112Z,0
2017-10-31T02:19:11.584Z,0
2017-10-31T02:20:21.645Z,0
2017-10-31T02:21:32.044Z,0
2017-10-31T02:22:42.457Z,0
2017-10-31T02:23:52.850Z,0
2017-10-31T02:25:03.238Z,0
2017-10-31T02:26:13.634Z,0
2017-10-31T02:27:24.016Z,0
2017-10-31T02:28:34.082Z,0
2017-10-31T02:29:44.472Z,0
2017-10-31T02:30:54.890Z,0
2017-10-31T02:32:05.305Z,0
2017-10-31T02:33:15.408Z,0
2017-10-31T02:34:25.825Z,0
2017-10-31T02:35:36.236Z,0
2017-10-31T02:36:46.673Z,0
2017-10-31T02:37:57.076Z,0
2017-10-31T02:39:07.473Z,0
2017-10-31T02:40:17.863Z,0
2017-10-31T02:41:28.288Z,0
2017-10-31T02:42:38.728Z,0
2017-10-31T02:43:49.124Z,0
2017-10-31T02:44:59.192Z,0
2017-10-31T02:46:08.931Z,0
2017-10-31T02:47:19.006Z,0
2017-10-31T02:48:29.421Z,0
2017-10-31T02:49:39.813Z,0
2017-10-31T02:50:49.894Z,0
2017-10-31T02:51:59.964Z,0
2017-10-31T02:53:10.967Z,0
2017-10-31T02:54:21.396Z,0
2017-10-31T02:55:31.466Z,0
2017-10-31T02:56:41.860Z,0
2017-10-31T02:57:52.296Z,0
2017-10-31T02:59:02.395Z,0
2017-10-31T03:00:12.826Z,0
2017-10-31T03:01:23.222Z,0
2017-10-31T03:33:04.777Z,0
2017-10-31T03:34:15.418Z,0
2017-10-31T03:35:26.113Z,0
2017-10-31T03:36:36.518Z,0
2017-10-31T03:37:46.827Z,0
2017-10-31T03:38:59.329Z,0
2017-10-31T03:40:11.174Z,0
2017-10-31T03:41:24.576Z,0
2017-10-31T03:42:36.214Z,0
2017-10-31T03:43:54.419Z,0
2017-10-31T03:45:05.040Z,0
2017-10-31T03:46:15.424Z,0
2017-10-31T03:47:25.494Z,0
2017-10-31T03:48:35.878Z,0
2017-10-31T03:49:45.952Z,0
2017-10-31T03:50:56.022Z,0
2017-10-31T03:52:06.439Z,0
2017-10-31T03:53:16.518Z,0
2017-10-31T03:54:26.912Z,0
2017-10-31T03:55:36.703Z,0
2017-10-31T03:56:47.108Z,0
2017-10-31T03:57:57.166Z,0
2017-10-31T03:59:07.248Z,0
2017-10-31T04:00:17.335Z,0
2017-10-31T04:01:27.459Z,0
2017-10-31T04:02:37.851Z,0
2017-10-31T04:03:48.249Z,0
2017-10-31T04:04:58.336Z,0
2017-10-31T04:06:08.765Z,0
2017-10-31T04:07:19.212Z,0
2017-10-31T04:08:29.278Z,0
2017-10-31T04:09:39.717Z,0
2017-10-31T04:10:50.121Z,0
2017-10-31T04:12:00.533Z,0
2017-10-31T04:13:10.936Z,0
2017-10-31T04:14:21.335Z,0
2017-10-31T04:15:31.744Z,0
2017-10-31T04:16:41.491Z,0
2017-10-31T04:17:51.891Z,0
2017-10-31T04:19:02.335Z,0
2017-10-31T04:20:12.727Z,0
2017-10-31T04:21:23.929Z,0
2017-10-31T04:22:34.321Z,0
2017-10-31T04:23:44.711Z,0
2017-10-31T04:24:54.551Z,0
2017-10-31T04:26:04.303Z,0
2017-10-31T04:27:14.700Z,0
2017-10-31T04:28:25.119Z,0
2017-10-31T04:29:35.519Z,0
2017-10-31T04:30:45.941Z,0
2017-10-31T04:31:55.999Z,0
2017-10-31T04:33:06.403Z,0
2017-10-31T04:34:16.802Z,0
2017-10-31T04:35:26.857Z,0
2017-10-31T04:36:36.958Z,0
2017-10-31T04:37:46.705Z,0
2017-10-31T04:38:57.136Z,0
2017-10-31T04:40:07.535Z,0
2017-10-31T04:41:17.924Z,0
2017-10-31T04:42:28.359Z,0
2017-10-31T04:43:38.747Z,0
2017-10-31T04:44:49.138Z,0
2017-10-31T04:45:59.529Z,0
2017-10-31T04:47:09.839Z,0
2017-10-31T04:48:19.887Z,0
2017-10-31T04:49:29.968Z,0
2017-10-31T04:50:40.376Z,0
2017-10-31T04:51:50.759Z,0
2017-10-31T04:53:01.164Z,0
2017-10-31T04:54:11.567Z,0
2017-10-31T04:55:21.634Z,0
2017-10-31T04:56:31.704Z,0
2017-10-31T04:57:42.101Z,0
2017-10-31T04:58:52.512Z,0
2017-10-31T05:00:02.582Z,0
2017-10-31T05:01:12.981Z,0
2017-10-31T05:02:23.383Z,0
2017-10-31T05:03:33.786Z,0
2017-10-31T05:04:43.539Z,0
2017-10-31T05:05:53.659Z,0
2017-10-31T05:07:04.061Z,0
2017-10-31T05:08:14.452Z,0
2017-10-31T05:09:24.545Z,0
2017-10-31T05:10:34.948Z,0
2017-10-31T05:11:45.403Z,0
2017-10-31T05:12:55.806Z,0
2017-10-31T05:14:06.196Z,0
2017-10-31T05:15:15.943Z,0
2017-10-31T05:16:25.999Z,0
2017-10-31T05:17:36.122Z,0
2017-10-31T05:18:46.188Z,0
2017-10-31T05:19:56.249Z,0
2017-10-31T05:21:06.639Z,0
2017-10-31T05:22:17.041Z,0
2017-10-31T05:23:27.590Z,0
2017-10-31T05:24:37.661Z,0
2017-10-31T05:25:48.089Z,0
2017-10-31T05:26:58.518Z,0
2017-10-31T05:28:08.594Z,0
2017-10-31T05:29:18.988Z,0
2017-10-31T05:30:29.391Z,0
2017-10-31T05:31:39.794Z,0
2017-10-31T05:32:50.192Z,0
2017-10-31T05:34:00.680Z,0
2017-10-31T05:35:11.129Z,0
2017-10-31T05:36:21.191Z,0
2017-10-31T05:37:31.594Z,0
2017-10-31T05:38:41.664Z,0
2017-10-31T05:39:51.732Z,0
2017-10-31T05:41:01.893Z,0
2017-10-31T05:42:12.304Z,0
2017-10-31T05:43:22.690Z,0
2017-10-31T05:44:32.447Z,0
2017-10-31T05:45:42.869Z,0
2017-10-31T05:46:52.924Z,0
2017-10-31T05:48:03.319Z,0
2017-10-31T05:49:13.734Z,0
2017-10-31T05:50:24.121Z,0
2017-10-31T05:51:34.193Z,0
2017-10-31T05:52:44.634Z,0
2017-10-31T05:53:54.712Z,0
2017-10-31T05:55:04.777Z,0
2017-10-31T05:56:14.841Z,0
2017-10-31T05:57:24.912Z,0
2017-10-31T05:58:35.036Z,0
2017-10-31T05:59:45.436Z,0
2017-10-31T06:00:55.836Z,0
2017-10-31T06:02:06.228Z,0
2017-10-31T06:03:16.635Z,0
2017-10-31T06:04:26.752Z,0
2017-10-31T06:05:37.139Z,5
2017-10-31T06:06:47.213Z,5
2017-10-31T06:07:57.613Z,5
2017-10-31T06:09:07.711Z,5
2017-10-31T06:10:18.198Z,5
2017-10-31T06:11:28.603Z,5
2017-10-31T06:12:38.676Z,5
2017-10-31T06:13:49.071Z,5
2017-10-31T06:14:59.479Z,0
2017-10-31T06:16:09.907Z,0
2017-10-31T06:17:20.312Z,5
2017-10-31T06:18:30.384Z,5
2017-10-31T06:19:40.795Z,5
2017-10-31T06:20:51.203Z,5
2017-10-31T06:22:00.988Z,5
2017-10-31T06:23:11.079Z,5
2017-10-31T06:24:21.161Z,5
2017-10-31T06:25:31.554Z,5
2017-10-31T06:26:41.633Z,5
2017-10-31T06:27:52.031Z,5
2017-10-31T06:29:02.104Z,5
2017-10-31T06:30:11.849Z,5
2017-10-31T06:31:22.519Z,5
2017-10-31T06:32:32.900Z,5
2017-10-31T06:33:43.293Z,5
2017-10-31T06:34:53.016Z,5
2017-10-31T06:36:03.413Z,5
2017-10-31T06:37:13.837Z,10
2017-10-31T06:38:23.924Z,10
2017-10-31T06:39:34.400Z,10
2017-10-31T06:40:44.778Z,10
2017-10-31T06:41:55.194Z,10
2017-10-31T06:43:05.311Z,10
2017-10-31T06:44:15.052Z,10
2017-10-31T06:45:25.494Z,10
2017-10-31T06:46:35.886Z,10
2017-10-31T06:47:46.278Z,10
2017-10-31T06:48:56.699Z,10
2017-10-31T06:50:07.099Z,10
2017-10-31T06:51:17.488Z,10
2017-10-31T06:52:27.535Z,10
2017-10-31T06:53:36.946Z,10
2017-10-31T06:54:47.339Z,10
2017-10-31T06:55:57.090Z,10
2017-10-31T06:57:07.533Z,10
2017-10-31T06:58:17.268Z,10
2017-10-31T06:59:27.659Z,10
2017-10-31T07:00:38.078Z,15
2017-10-31T07:01:48.479Z,15
2017-10-31T07:02:58.585Z,20
2017-10-31T07:04:08.683Z,20
2017-10-31T07:05:18.423Z,20
2017-10-31T07:06:28.488Z,20
2017-10-31T07:07:38.557Z,20
2017-10-31T07:08:48.691Z,20
2017-10-31T07:09:59.086Z,20
2017-10-31T07:11:09.148Z,25
2017-10-31T07:12:18.910Z,25
2017-10-31T07:13:28.987Z,25
2017-10-31T07:14:39.432Z,30
2017-10-31T07:15:49.815Z,30
2017-10-31T07:16:59.901Z,30
2017-10-31T07:18:09.315Z,30
2017-10-31T07:19:19.711Z,30
2017-10-31T07:20:30.166Z,30
2017-10-31T07:21:40.571Z,30
2017-10-31T07:22:50.979Z,30
2017-10-31T07:24:01.409Z,30
2017-10-31T07:25:11.811Z,30
2017-10-31T07:26:22.242Z,30
2017-10-31T07:27:32.307Z,30
2017-10-31T07:28:42.380Z,30
2017-10-31T07:29:52.821Z,30
2017-10-31T07:31:02.882Z,30
2017-10-31T07:32:13.330Z,35
2017-10-31T07:33:23.736Z,35
2017-10-31T07:34:34.154Z,40
2017-10-31T07:35:44.243Z,40
2017-10-31T07:36:54.658Z,40
2017-10-31T07:38:05.108Z,40
2017-10-31T07:39:14.859Z,40
2017-10-31T07:40:24.918Z,40
2017-10-31T07:41:35.300Z,40
2017-10-31T07:42:45.705Z,45
2017-10-31T07:43:56.103Z,45
2017-10-31T07:45:06.183Z,45
2017-10-31T07:46:16.612Z,45
2017-10-31T07:47:27.008Z,50
2017-10-31T07:48:37.424Z,50
2017-10-31T07:49:47.820Z,45
2017-10-31T07:50:58.212Z,45
2017-10-31T07:52:08.653Z,45
2017-10-31T07:53:18.715Z,45
2017-10-31T07:54:29.118Z,40
2017-10-31T07:55:38.583Z,40
2017-10-31T07:56:48.967Z,40
2017-10-31T07:57:59.368Z,45
2017-10-31T07:59:09.757Z,45
2017-10-31T08:00:20.152Z,50
2017-10-31T08:01:29.902Z,50
2017-10-31T08:02:40.298Z,50
2017-10-31T08:03:50.716Z,50
2017-10-31T08:05:00.783Z,55
2017-10-31T08:06:10.546Z,55
2017-10-31T08:07:20.606Z,60
2017-10-31T08:08:30.991Z,60
2017-10-31T08:09:41.382Z,65
2017-10-31T08:10:51.776Z,55
2017-10-31T08:12:02.197Z,55
2017-10-31T08:13:12.589Z,55
2017-10-31T08:14:22.675Z,55
2017-10-31T08:15:33.060Z,60
2017-10-31T08:16:43.467Z,60
2017-10-31T08:17:53.901Z,60
2017-10-31T08:19:04.381Z,60
2017-10-31T08:20:14.793Z,60
2017-10-31T08:21:25.182Z,60
2017-10-31T08:22:35.259Z,65
2017-10-31T08:23:45.661Z,75
2017-10-31T08:24:56.114Z,75
2017-10-31T08:26:06.517Z,85
2017-10-31T08:27:16.257Z,90
2017-10-31T08:28:26.322Z,90
2017-10-31T08:29:36.736Z,90
2017-10-31T08:30:46.805Z,90
2017-10-31T08:31:57.239Z,95
2017-10-31T08:33:07.292Z,95
2017-10-31T08:34:17.372Z,95
2017-10-31T08:35:27.765Z,95
2017-10-31T08:36:38.172Z,95
2017-10-31T08:37:48.239Z,100
2017-10-31T08:38:58.642Z,105
2017-10-31T08:40:09.052Z,105
2017-10-31T08:41:19.444Z,105
2017-10-31T08:42:29.516Z,105
2017-10-31T08:43:39.913Z,105
2017-10-31T08:44:50.298Z,105
2017-10-31T08:46:00.375Z,105
2017-10-31T08:47:10.444Z,105
2017-10-31T08:48:20.898Z,110
2017-10-31T08:49:31.311Z,110
2017-10-31T08:50:41.774Z,115
2017-10-31T08:51:51.878Z,115
2017-10-31T08:53:01.980Z,115
2017-10-31T08:54:12.382Z,115
2017-10-31T08:55:22.800Z,115
2017-10-31T08:56:32.861Z,120
2017-10-31T08:57:43.262Z,125
2017-10-31T08:58:53.654Z,125
2017-10-31T09:00:04.042Z,130
2017-10-31T09:01:14.453Z,135
2017-10-31T09:02:24.870Z,135
2017-10-31T09:03:34.936Z,135
2017-10-31T09:04:45.003Z,135
2017-10-31T09:05:55.470Z,135
2017-10-31T09:07:05.876Z,135
2017-10-31T09:08:16.289Z,135
2017-10-31T09:09:26.688Z,135
2017-10-31T09:10:37.076Z,135
2017-10-31T09:11:47.527Z,135
2017-10-31T09:12:57.936Z,135
2017-10-31T09:14:08.012Z,135
2017-10-31T09:15:18.423Z,135
2017-10-31T09:16:28.835Z,135
2017-10-31T09:17:39.271Z,135
2017-10-31T09:18:49.343Z,135
2017-10-31T09:19:59.735Z,135
2017-10-31T09:21:10.120Z,130
2017-10-31T09:22:20.204Z,130
2017-10-31T09:23:30.681Z,130
2017-10-31T09:24:40.750Z,130
2017-10-31T09:25:51.140Z,130
2017-10-31T09:27:01.550Z,135
2017-10-31T09:28:11.619Z,135
2017-10-31T09:29:21.750Z,135
2017-10-31T09:30:32.166Z,135
2017-10-31T09:31:42.603Z,135
2017-10-31T09:32:53.023Z,145
2017-10-31T09:34:03.423Z,145
2017-10-31T09:35:13.494Z,145
2017-10-31T09:36:23.558Z,145
2017-10-31T09:37:33.298Z,145
2017-10-31T09:38:43.389Z,150
2017-10-31T09:39:53.121Z,150
2017-10-31T09:41:03.536Z,150
2017-10-31T09:42:13.625Z,150
2017-10-31T09:43:23.697Z,150
2017-10-31T09:44:33.438Z,150
2017-10-31T09:45:43.842Z,150
2017-10-31T09:46:54.301Z,150
2017-10-31T09:48:04.373Z,150
2017-10-31T09:49:14.442Z,150
2017-10-31T09:50:24.833Z,150
2017-10-31T09:51:34.900Z,150
2017-10-31T09:52:45.348Z,150
2017-10-31T09:53:55.749Z,150
2017-10-31T09:55:06.158Z,150
2017-10-31T09:56:16.555Z,150
2017-10-31T09:57:26.632Z,155
2017-10-31T09:58:37.079Z,155
2017-10-31T09:59:47.138Z,160
2017-10-31T10:00:57.549Z,160
2017-10-31T10:02:07.636Z,155
2017-10-31T10:03:18.122Z,155
2017-10-31T10:04:28.246Z,155
2017-10-31T10:05:38.650Z,155
2017-10-31T10:06:49.059Z,160
2017-10-31T10:07:59.120Z,160
2017-10-31T10:09:09.520Z,165
2017-10-31T10:10:19.594Z,165
2017-10-31T10:11:30.024Z,165
2017-10-31T10:12:40.097Z,165
2017-10-31T10:13:50.485Z,165
2017-10-31T10:15:00.884Z,165
2017-10-31T10:16:11.316Z,160
2017-10-31T10:17:21.394Z,160
2017-10-31T10:18:31.783Z,155
2017-10-31T10:19:41.906Z,155
2017-10-31T10:20:52.308Z,155
2017-10-31T10:22:02.719Z,155
2017-10-31T10:23:13.117Z,155
2017-10-31T10:24:23.526Z,150
2017-10-31T10:25:33.970Z,150
2017-10-31T10:26:44.061Z,150
2017-10-31T10:27:54.498Z,150
2017-10-31T10:29:04.921Z,145
2017-10-31T10:30:15.341Z,150
2017-10-31T10:31:25.766Z,150
2017-10-31T10:32:35.859Z,145
2017-10-31T10:33:46.257Z,150
2017-10-31T10:34:57.059Z,150
2017-10-31T10:36:07.138Z,150
2017-10-31T10:37:17.209Z,150
2017-10-31T10:38:27.299Z,150
2017-10-31T10:39:37.375Z,150
2017-10-31T10:40:47.792Z,145
2017-10-31T10:41:58.221Z,150
2017-10-31T10:43:08.357Z,150
2017-10-31T10:44:18.423Z,155
2017-10-31T10:45:28.824Z,140
2017-10-31T10:46:39.221Z,140
2017-10-31T10:47:49.624Z,140
2017-10-31T10:48:59.681Z,135
2017-10-31T10:50:10.107Z,130
2017-10-31T10:51:20.494Z,125
2017-10-31T10:52:30.574Z,115
2017-10-31T10:53:40.985Z,110
2017-10-31T10:54:51.385Z,110
2017-10-31T10:56:01.782Z,115
2017-10-31T10:57:12.189Z,125
2017-10-31T10:58:22.260Z,125
2017-10-31T10:59:32.400Z,120
2017-10-31T11:00:42.789Z,105
2017-10-31T11:01:53.184Z,100
2017-10-31T11:03:03.572Z,110
2017-10-31T11:04:13.987Z,120
2017-10-31T11:05:24.409Z,135
2017-10-31T11:06:34.868Z,145
2017-10-31T11:07:45.260Z,145
2017-10-31T11:08:55.325Z,140
2017-10-31T11:10:05.730Z,145
2017-10-31T11:11:16.293Z,145
2017-10-31T11:12:26.439Z,145
2017-10-31T11:13:36.861Z,145
2017-10-31T11:14:46.921Z,145
2017-10-31T11:15:57.312Z,140
2017-10-31T11:17:07.704Z,145
2017-10-31T11:18:17.839Z,150
2017-10-31T11:19:27.588Z,150
2017-10-31T11:20:37.988Z,155
2017-10-31T11:21:48.415Z,160
2017-10-31T11:22:58.816Z,160
2017-10-31T11:24:09.285Z,155
2017-10-31T11:25:19.366Z,150
2017-10-31T11:26:29.452Z,150
2017-10-31T11:27:39.515Z,150
2017-10-31T11:28:49.924Z,150
2017-10-31T11:30:00.054Z,150
2017-10-31T11:31:10.456Z,150
2017-10-31T11:32:21.190Z,150
2017-10-31T11:33:31.588Z,145
2017-10-31T11:34:41.980Z,145
2017-10-31T11:35:52.111Z,145
2017-10-31T11:37:02.190Z,145
2017-10-31T11:38:12.582Z,150
2017-10-31T11:39:22.971Z,145
2017-10-31T11:40:33.388Z,145
2017-10-31T11:41:43.518Z,145
2017-10-31T11:42:53.929Z,145
2017-10-31T11:44:04.349Z,145
2017-10-31T11:45:14.760Z,145
2017-10-31T11:46:25.167Z,145
2017-10-31T11:47:35.619Z,145
2017-10-31T11:48:46.030Z,145
2017-10-31T11:49:56.097Z,145
2017-10-31T11:51:06.504Z,140
2017-10-31T11:52:16.911Z,140
2017-10-31T11:53:27.344Z,135
2017-10-31T11:54:37.754Z,135
2017-10-31T11:55:48.381Z,130
2017-10-31T11:56:58.772Z,130
2017-10-31T11:58:08.850Z,130
2017-10-31T11:59:19.235Z,130
2017-10-31T12:00:29.323Z,130
2017-10-31T12:01:39.785Z,130
2017-10-31T12:02:49.842Z,125
2017-10-31T12:04:00.269Z,125
2017-10-31T12:05:10.718Z,125
2017-10-31T12:06:20.795Z,125
2017-10-31T12:07:31.208Z,120
2017-10-31T12:08:41.626Z,125
2017-10-31T12:09:51.371Z,120
2017-10-31T12:11:01.828Z,120
2017-10-31T12:12:11.901Z,120
2017-10-31T12:13:22.310Z,120
2017-10-31T12:14:32.708Z,125
2017-10-31T12:15:43.122Z,120
2017-10-31T12:16:53.575Z,120
2017-10-31T12:18:03.990Z,120
2017-10-31T12:19:14.421Z,120
2017-10-31T12:20:24.508Z,120
2017-10-31T12:21:34.915Z,120
2017-10-31T12:22:45.382Z,120
2017-10-31T12:23:55.454Z,120
2017-10-31T12:25:05.836Z,120
2017-10-31T12:26:16.238Z,115
2017-10-31T12:27:26.631Z,115
2017-10-31T12:28:36.702Z,115
2017-10-31T12:29:46.779Z,115
2017-10-31T12:30:57.174Z,115
2017-10-31T12:32:07.585Z,110
2017-10-31T12:33:17.662Z,110
2017-10-31T12:34:28.091Z,110
2017-10-31T12:35:38.510Z,110
2017-10-31T12:36:48.258Z,110
2017-10-31T12:37:58.645Z,110
2017-10-31T12:39:09.051Z,110
2017-10-31T12:40:19.176Z,105
2017-10-31T12:41:29.601Z,105
2017-10-31T12:42:39.733Z,110
2017-10-31T12:43:49.471Z,110
2017-10-31T12:44:59.878Z,110
2017-10-31T12:46:09.951Z,110
2017-10-31T12:47:20.342Z,110
2017-10-31T12:48:30.780Z,110
2017-10-31T12:49:41.187Z,110
2017-10-31T12:50:51.594Z,105
2017-10-31T12:52:02.035Z,105
2017-10-31T12:53:12.108Z,100
2017-10-31T12:54:22.518Z,105
2017-10-31T12:55:32.905Z,105
2017-10-31T12:56:42.973Z,105
2017-10-31T12:57:53.392Z,105
2017-10-31T12:59:03.801Z,105
2017-10-31T13:00:14.219Z,105
2017-10-31T13:01:24.618Z,105
2017-10-31T13:02:35.035Z,105
2017-10-31T13:03:45.444Z,105
2017-10-31T13:04:55.890Z,105
2017-10-31T13:06:06.287Z,105
2017-10-31T13:07:16.698Z,105
2017-10-31T13:08:26.478Z,105
2017-10-31T13:09:36.610Z,105
2017-10-31T13:10:46.682Z,105
2017-10-31T13:11:56.766Z,105
2017-10-31T13:13:06.516Z,100
2017-10-31T13:14:16.950Z,100
2017-10-31T13:15:27.099Z,100
2017-10-31T13:16:37.513Z,100
2017-10-31T13:17:47.288Z,95
2017-10-31T13:18:57.392Z,95
2017-10-31T13:20:07.804Z,95
2017-10-31T13:21:18.272Z,90
2017-10-31T13:22:28.702Z,95
2017-10-31T13:23:39.114Z,95
2017-10-31T13:24:49.525Z,95
2017-10-31T13:25:59.272Z,95
2017-10-31T13:27:09.732Z,105
2017-10-31T13:28:20.128Z,105
2017-10-31T13:29:30.518Z,120
2017-10-31T13:30:41.863Z,95
2017-10-31T13:31:52.254Z,120
2017-10-31T13:33:02.687Z,120
2017-10-31T13:34:12.769Z,150
2017-10-31T13:35:23.186Z,150
2017-10-31T13:36:33.603Z,140
2017-10-31T13:37:44.003Z,140
2017-10-31T13:38:54.420Z,140
2017-10-31T13:40:04.508Z,135
2017-10-31T13:41:14.589Z,140
2017-10-31T13:42:25.008Z,145
2017-10-31T13:43:35.414Z,135
2017-10-31T13:44:45.871Z,135
2017-10-31T13:45:55.976Z,135
2017-10-31T13:47:06.082Z,135
2017-10-31T13:48:16.485Z,130
2017-10-31T13:49:26.896Z,130
2017-10-31T13:50:36.981Z,135
2017-10-31T13:51:47.055Z,140
2017-10-31T13:52:57.448Z,140
2017-10-31T13:54:07.536Z,145
2017-10-31T13:55:18.723Z,145
2017-10-31T13:56:29.179Z,140
2017-10-31T13:57:39.250Z,125
2017-10-31T13:58:49.657Z,90
2017-10-31T14:00:00.053Z,130
2017-10-31T14:01:10.482Z,90
2017-10-31T14:02:20.882Z,85
2017-10-31T14:03:31.304Z,80
2017-10-31T14:04:41.715Z,70
2017-10-31T14:05:51.456Z,70
2017-10-31T14:07:01.546Z,70
2017-10-31T14:08:12.007Z,65
2017-10-31T14:09:22.385Z,60
2017-10-31T14:10:33.199Z,55
2017-10-31T14:11:43.625Z,55
2017-10-31T14:12:54.038Z,55
2017-10-31T14:14:04.440Z,55
2017-10-31T14:15:14.860Z,55
2017-10-31T14:16:25.274Z,55
2017-10-31T14:17:35.358Z,55
2017-10-31T14:18:45.757Z,50
2017-10-31T14:19:55.846Z,50
2017-10-31T14:21:06.272Z,45
2017-10-31T14:22:16.357Z,40
2017-10-31T14:23:26.768Z,30
2017-10-31T14:24:36.867Z,25
2017-10-31T14:25:46.681Z,20
2017-10-31T14:26:56.749Z,20
2017-10-31T14:28:07.158Z,20
2017-10-31T14:29:17.565Z,15
2017-10-31T14:30:27.953Z,15
2017-10-31T14:31:38.072Z,15
2017-10-31T14:32:48.168Z,15
2017-10-31T14:33:58.264Z,15
2017-10-31T14:35:08.682Z,20
2017-10-31T14:36:19.084Z,20
2017-10-31T14:37:29.537Z,20
2017-10-31T14:38:39.926Z,20
2017-10-31T14:39:50.026Z,25
2017-10-31T14:41:00.448Z,25
2017-10-31T14:42:10.861Z,25
2017-10-31T14:43:21.339Z,30
2017-10-31T14:44:31.412Z,30
2017-10-31T14:45:41.809Z,30
2017-10-31T14:46:51.873Z,25
2017-10-31T14:48:02.290Z,25
2017-10-31T14:49:12.762Z,25
2017-10-31T14:50:22.875Z,25
2017-10-31T14:51:32.941Z,20
2017-10-31T14:52:43.343Z,20
2017-10-31T14:53:53.804Z,20
2017-10-31T14:55:04.255Z,20
2017-10-31T14:56:14.661Z,15
2017-10-31T14:57:25.315Z,15
2017-10-31T14:58:35.710Z,15
2017-10-31T14:59:46.120Z,15
2017-10-31T15:00:56.595Z,10
2017-10-31T15:02:07.021Z,10
2017-10-31T15:03:17.488Z,10
2017-10-31T15:04:27.909Z,10
2017-10-31T15:05:37.988Z,10
2017-10-31T15:06:48.131Z,10
2017-10-31T15:07:58.546Z,10
2017-10-31T15:09:08.961Z,10
2017-10-31T15:10:19.348Z,10
2017-10-31T15:11:29.757Z,5
2017-10-31T15:12:39.864Z,5
2017-10-31T15:13:50.250Z,5
2017-10-31T15:15:00.337Z,5
2017-10-31T15:16:10.407Z,5
2017-10-31T15:17:20.490Z,5
2017-10-31T15:18:30.249Z,5
2017-10-31T15:19:40.339Z,5
2017-10-31T15:20:50.759Z,5
2017-10-31T15:22:00.822Z,5
2017-10-31T15:23:11.253Z,5
2017-10-31T15:24:21.701Z,5
2017-10-31T15:25:31.764Z,5
2017-10-31T15:26:42.177Z,0
2017-10-31T15:27:52.591Z,0
2017-10-31T15:29:03.032Z,0
2017-10-31T15:30:13.425Z,0
2017-10-31T15:31:23.839Z,0
2017-10-31T15:32:34.238Z,0
2017-10-31T15:33:44.298Z,0
2017-10-31T15:34:54.684Z,0
2017-10-31T15:36:04.825Z,0
2017-10-31T15:37:14.586Z,0
2017-10-31T15:38:25.035Z,0
2017-10-31T15:39:35.467Z,0
2017-10-31T15:40:45.876Z,0
2017-10-31T15:41:57.162Z,0
2017-10-31T15:43:07.616Z,0
2017-10-31T15:44:17.688Z,0
2017-10-31T15:45:28.087Z,0
2017-10-31T15:46:38.169Z,0
2017-10-31T15:47:47.910Z,0
2017-10-31T15:48:58.012Z,0
2017-10-31T15:50:08.089Z,0
2017-10-31T15:51:18.489Z,0
2017-10-31T15:52:28.914Z,0
2017-10-31T15:53:39.064Z,0
2017-10-31T15:54:49.466Z,0
2017-10-31T15:55:59.545Z,0
2017-10-31T15:57:09.957Z,0
2017-10-31T15:58:20.060Z,0
2017-10-31T15:59:30.193Z,0
2017-10-31T16:00:40.600Z,0
2017-10-31T16:01:50.667Z,0
2017-10-31T16:03:01.066Z,0
2017-10-31T16:04:11.468Z,0
2017-10-31T16:05:21.877Z,0
2017-10-31T16:06:32.266Z,0
2017-10-31T16:07:42.321Z,0
2017-10-31T16:08:52.722Z,0
2017-10-31T16:10:03.126Z,0
2017-10-31T16:11:13.591Z,0
2017-10-31T16:12:24.017Z,0
2017-10-31T16:13:34.429Z,0
2017-10-31T16:14:44.827Z,0
2017-10-31T16:15:55.258Z,0
2017-10-31T16:17:05.673Z,0
2017-10-31T16:18:16.077Z,0
2017-10-31T16:19:26.488Z,0
2017-10-31T16:20:36.899Z,0
2017-10-31T16:21:46.633Z,0
2017-10-31T16:22:57.087Z,0
2017-10-31T16:24:07.494Z,0
2017-10-31T16:25:17.917Z,0
2017-10-31T16:26:28.001Z,0
2017-10-31T16:27:38.402Z,0
2017-10-31T16:28:48.819Z,0
2017-10-31T16:29:59.238Z,0
2017-10-31T16:31:09.642Z,0
2017-10-31T16:32:20.058Z,0
2017-10-31T16:33:30.467Z,0
2017-10-31T16:34:40.936Z,0
2017-10-31T16:35:51.003Z,0
2017-10-31T16:37:01.414Z,0
2017-10-31T16:38:11.490Z,0
2017-10-31T16:39:21.560Z,0
2017-10-31T16:40:31.979Z,0
2017-10-31T16:41:42.381Z,0
2017-10-31T16:42:52.804Z,0
2017-10-31T16:44:03.211Z,0
2017-10-31T16:45:13.278Z,0
2017-10-31T16:46:23.348Z,0
2017-10-31T16:47:33.757Z,0
2017-10-31T16:48:44.183Z,0
2017-10-31T16:49:54.583Z,0
2017-10-31T16:51:04.985Z,0
2017-10-31T16:52:15.473Z,0
2017-10-31T16:53:25.864Z,0
2017-10-31T16:54:36.267Z,0
2017-10-31T16:55:46.680Z,0
2017-10-31T16:56:57.105Z,0
2017-10-31T16:58:07.551Z,0
2017-10-31T16:59:17.992Z,0
2017-10-31T17:00:28.412Z,0
2017-10-31T17:01:38.834Z,0
2017-10-31T17:02:49.242Z,0
2017-10-31T17:03:59.696Z,0
2017-10-31T17:05:10.123Z,0
2017-10-31T17:06:20.556Z,0
2017-10-31T17:07:30.640Z,0
2017-10-31T17:08:41.128Z,0
2017-10-31T17:09:51.567Z,0
2017-10-31T17:11:01.658Z,0
2017-10-31T17:12:12.063Z,0
2017-10-31T17:13:22.504Z,0
2017-10-31T17:14:32.910Z,0
2017-10-31T17:15:43.313Z,0
2017-10-31T17:16:53.418Z,0
2017-10-31T17:18:03.861Z,0
2017-10-31T17:19:14.279Z,0
2017-10-31T17:20:24.706Z,0